createdAt,value
2022-12-20T00:01:31.690Z,76.50
2022-12-20T00:04:02.247Z,76.60
2022-12-20T00:06:29.531Z,76.37
2022-12-20T00:09:01.035Z,76.38
2022-12-20T00:11:28.852Z,76.53
2022-12-20T00:13:56.112Z,76.71
2022-12-20T00:16:25.796Z,76.59
2022-12-20T00:18:54.923Z,76.53
2022-12-20T00:21:21.844Z,76.47
2022-12-20T00:23:48.392Z,76.21
2022-12-20T00:26:18.424Z,76.57
2022-12-20T00:28:46.330Z,76.30
2022-12-20T00:31:15.073Z,76.56
2022-12-20T00:33:45.853Z,76.58
2022-12-20T00:36:12.933Z,76.75
2022-12-20T00:38:39.452Z,76.69
2022-12-20T00:41:12.037Z,76.38
2022-12-20T00:43:39.393Z,76.68
2022-12-20T00:46:07.690Z,76.57
2022-12-20T00:48:34.984Z,76.55
2022-12-20T00:51:04.200Z,76.38
2022-12-20T00:53:31.073Z,76.58
2022-12-20T00:55:58.722Z,76.73
2022-12-20T00:58:26.462Z,76.51
2022-12-20T01:00:56.527Z,76.78
2022-12-20T01:03:24.722Z,76.60
2022-12-20T01:06:02.405Z,76.73
2022-12-20T01:08:30.562Z,76.94
2022-12-20T01:11:00.139Z,76.63
2022-12-20T01:13:27.044Z,76.91
2022-12-20T01:15:53.510Z,76.83
2022-12-20T01:18:20.144Z,76.94
2022-12-20T01:20:46.685Z,76.69
2022-12-20T01:23:13.248Z,76.86
2022-12-20T01:25:40.244Z,76.98
2022-12-20T01:28:06.973Z,76.88
2022-12-20T01:30:33.467Z,77.08
2022-12-20T01:32:59.948Z,77.02
2022-12-20T01:35:26.541Z,76.91
2022-12-20T01:37:53.120Z,76.92
2022-12-20T01:40:19.636Z,77.00
2022-12-20T01:42:46.577Z,76.93
2022-12-20T01:45:26.634Z,77.08
2022-12-20T01:47:53.619Z,76.75
2022-12-20T01:50:20.143Z,76.85
2022-12-20T01:52:47.823Z,76.85
2022-12-20T01:55:19.884Z,77.01
2022-12-20T01:57:51.728Z,76.98
2022-12-20T02:00:18.996Z,76.71
2022-12-20T02:02:47.576Z,77.18
2022-12-20T02:05:16.031Z,77.03
2022-12-20T02:07:47.533Z,76.99
2022-12-20T02:10:16.964Z,77.26
2022-12-20T02:12:45.996Z,77.11
2022-12-20T02:15:22.047Z,76.99
2022-12-20T02:18:08.017Z,77.20
2022-12-20T02:21:05.336Z,77.27
2022-12-20T02:23:46.207Z,76.78
2022-12-20T02:26:49.903Z,77.05
2022-12-20T02:29:25.964Z,76.94
2022-12-20T02:32:03.021Z,77.27
2022-12-20T02:34:33.108Z,77.22
2022-12-20T02:36:59.592Z,77.09
2022-12-20T02:39:31.356Z,77.09
2022-12-20T02:42:06.229Z,76.86
2022-12-20T02:44:54.041Z,76.96
2022-12-20T02:47:37.303Z,76.70
2022-12-20T02:50:06.054Z,76.95
2022-12-20T02:52:33.986Z,76.89
2022-12-20T02:55:01.934Z,77.04
2022-12-20T02:57:44.222Z,76.85
2022-12-20T03:00:15.046Z,76.96
2022-12-20T03:03:02.375Z,77.13
2022-12-20T03:05:29.631Z,77.14
2022-12-20T03:07:57.100Z,77.22
2022-12-20T03:10:25.490Z,77.04
2022-12-20T03:13:20.393Z,76.81
2022-12-20T03:16:06.455Z,77.03
2022-12-20T03:18:33.557Z,77.12
2022-12-20T03:21:00.342Z,77.21
2022-12-20T03:23:27.009Z,77.37
2022-12-20T03:25:53.525Z,76.97
2022-12-20T03:28:28.427Z,76.99
2022-12-20T03:30:56.173Z,77.03
2022-12-20T03:33:22.962Z,77.50
2022-12-20T03:35:49.556Z,77.38
2022-12-20T03:38:17.974Z,76.91
2022-12-20T03:40:44.724Z,77.34
2022-12-20T03:43:16.001Z,76.91
2022-12-20T03:45:42.702Z,77.10
2022-12-20T03:48:09.291Z,77.11
2022-12-20T03:50:37.179Z,77.06
2022-12-20T03:53:03.827Z,77.10
2022-12-20T03:55:32.115Z,77.09
2022-12-20T03:57:59.784Z,77.09
2022-12-20T04:00:36.673Z,76.89
2022-12-20T04:03:32.071Z,77.09
2022-12-20T04:05:58.781Z,77.13
2022-12-20T04:08:25.420Z,77.17
2022-12-20T04:11:10.972Z,77.23
2022-12-20T04:13:40.055Z,76.98
2022-12-20T04:16:08.442Z,77.27
2022-12-20T04:18:34.951Z,76.97
2022-12-20T04:21:01.566Z,77.31
2022-12-20T04:23:30.755Z,77.24
2022-12-20T04:25:58.242Z,77.30
2022-12-20T04:28:24.861Z,77.06
2022-12-20T04:30:53.318Z,77.13
2022-12-20T04:33:24.681Z,77.50
2022-12-20T04:35:51.949Z,77.44
2022-12-20T04:38:21.368Z,77.37
2022-12-20T04:40:50.278Z,77.23
2022-12-20T04:43:17.528Z,77.25
2022-12-20T04:45:46.868Z,77.35
2022-12-20T04:48:37.497Z,77.46
2022-12-20T04:51:00.526Z,77.52
2022-12-20T04:53:46.206Z,77.21
2022-12-20T04:56:12.677Z,77.34
2022-12-20T04:58:39.394Z,77.53
2022-12-20T05:01:09.199Z,77.43
2022-12-20T05:03:44.805Z,77.58
2022-12-20T05:06:12.242Z,77.38
2022-12-20T05:08:39.988Z,77.55
2022-12-20T05:11:07.542Z,77.44
2022-12-20T05:13:35.604Z,77.50
2022-12-20T05:16:02.685Z,77.74
2022-12-20T05:18:32.659Z,77.74
2022-12-20T05:21:22.470Z,77.39
2022-12-20T05:24:10.067Z,77.73
2022-12-20T05:26:55.367Z,77.68
2022-12-20T05:29:21.918Z,77.68
2022-12-20T05:31:48.439Z,77.77
2022-12-20T05:34:15.459Z,77.64
2022-12-20T05:36:49.010Z,77.39
2022-12-20T05:39:15.761Z,77.65
2022-12-20T05:41:44.821Z,77.47
2022-12-20T05:44:11.438Z,77.71
2022-12-20T05:46:42.060Z,77.60
2022-12-20T05:49:13.765Z,77.52
2022-12-20T05:51:40.380Z,77.89
2022-12-20T05:54:18.634Z,77.65
2022-12-20T05:56:53.743Z,77.80
2022-12-20T05:59:26.282Z,77.87
2022-12-20T06:01:53.248Z,77.42
2022-12-20T06:04:23.234Z,77.62
2022-12-20T06:06:51.224Z,77.59
2022-12-20T06:09:19.125Z,77.67
2022-12-20T06:11:54.583Z,77.83
2022-12-20T06:14:21.985Z,77.55
2022-12-20T06:16:48.693Z,77.99
2022-12-20T06:19:21.349Z,78.10
2022-12-20T06:21:50.089Z,77.60
2022-12-20T06:24:21.290Z,77.80
2022-12-20T06:26:48.361Z,78.00
2022-12-20T06:29:17.485Z,77.86
2022-12-20T06:31:50.026Z,77.63
2022-12-20T06:34:16.533Z,77.86
2022-12-20T06:36:43.644Z,77.90
2022-12-20T06:39:16.594Z,78.13
2022-12-20T06:41:54.228Z,77.79
2022-12-20T06:44:21.014Z,77.94
2022-12-20T06:46:49.001Z,78.04
2022-12-20T06:49:15.653Z,78.27
2022-12-20T06:51:42.454Z,78.08
2022-12-20T06:54:09.702Z,78.09
2022-12-20T06:56:41.281Z,78.17
2022-12-20T06:59:10.110Z,78.03
2022-12-20T07:01:36.806Z,77.93
2022-12-20T07:04:03.664Z,78.03
2022-12-20T07:06:30.207Z,78.10
2022-12-20T07:08:56.785Z,77.79
2022-12-20T07:11:23.298Z,77.92
2022-12-20T07:13:50.356Z,77.94
2022-12-20T07:16:16.922Z,77.92
2022-12-20T07:18:43.501Z,77.95
2022-12-20T07:21:10.044Z,77.97
2022-12-20T07:23:36.512Z,78.07
2022-12-20T07:26:03.959Z,77.88
2022-12-20T07:28:30.783Z,78.03
2022-12-20T07:31:01.614Z,77.80
2022-12-20T07:33:28.560Z,78.05
2022-12-20T07:36:03.421Z,77.95
2022-12-20T07:38:30.268Z,78.04
2022-12-20T07:40:57.056Z,77.95
2022-12-20T07:43:23.709Z,77.82
2022-12-20T07:45:55.147Z,77.92
2022-12-20T07:48:23.675Z,78.04
2022-12-20T07:50:53.953Z,78.25
2022-12-20T07:53:22.298Z,77.94
2022-12-20T07:55:49.217Z,78.01
2022-12-20T07:58:17.372Z,78.03
2022-12-20T08:00:44.668Z,78.07
2022-12-20T08:03:20.831Z,78.08
2022-12-20T08:05:53.485Z,77.71
2022-12-20T08:08:20.651Z,78.05
2022-12-20T08:10:47.321Z,77.87
2022-12-20T08:13:14.120Z,77.78
2022-12-20T08:15:40.972Z,78.08
2022-12-20T08:18:07.525Z,77.99
2022-12-20T08:20:34.206Z,78.24
2022-12-20T08:23:03.627Z,78.13
2022-12-20T08:25:32.279Z,78.03
2022-12-20T08:28:02.452Z,77.97
2022-12-20T08:30:29.092Z,78.22
2022-12-20T08:32:56.330Z,78.05
2022-12-20T08:35:23.063Z,78.03
2022-12-20T08:37:52.854Z,77.98
2022-12-20T08:40:20.194Z,78.07
2022-12-20T08:42:46.775Z,78.09
2022-12-20T08:45:13.599Z,78.47
2022-12-20T08:47:40.163Z,78.10
2022-12-20T08:50:07.408Z,78.12
2022-12-20T08:52:33.978Z,77.88
2022-12-20T08:55:02.026Z,78.30
2022-12-20T08:57:29.017Z,78.30
2022-12-20T08:59:55.653Z,78.32
2022-12-20T09:02:22.318Z,78.33
2022-12-20T09:04:49.096Z,78.43
2022-12-20T09:07:15.577Z,78.24
2022-12-20T09:09:42.058Z,78.22
2022-12-20T09:12:08.567Z,78.50
2022-12-20T09:14:35.108Z,78.55
2022-12-20T09:17:01.618Z,78.23
2022-12-20T09:19:28.742Z,78.56
2022-12-20T09:21:55.662Z,78.38
2022-12-20T09:24:22.345Z,78.31
2022-12-20T09:26:49.126Z,78.53
2022-12-20T09:29:25.809Z,78.47
2022-12-20T09:31:55.092Z,78.58
2022-12-20T09:34:21.688Z,78.64
2022-12-20T09:36:48.182Z,78.75
2022-12-20T09:39:14.800Z,78.74
2022-12-20T09:41:43.197Z,78.61
2022-12-20T09:44:24.860Z,78.69
2022-12-20T09:47:17.949Z,78.81
2022-12-20T09:49:47.997Z,78.70
2022-12-20T09:52:29.914Z,78.72
2022-12-20T09:55:11.281Z,78.83
2022-12-20T09:57:46.996Z,78.84
2022-12-20T10:00:16.043Z,78.67
2022-12-20T10:05:41.488Z,78.60
2022-12-20T10:08:29.840Z,78.67
2022-12-20T10:11:02.766Z,78.72
2022-12-20T10:14:03.687Z,78.66
2022-12-20T10:16:44.977Z,78.83
2022-12-20T10:19:36.240Z,78.69
2022-12-20T10:22:11.488Z,78.71
2022-12-20T10:24:41.128Z,78.79
2022-12-20T10:27:17.384Z,78.67
2022-12-20T10:29:44.943Z,79.00
2022-12-20T10:32:15.529Z,78.89
2022-12-20T10:34:57.647Z,78.49
2022-12-20T10:37:24.151Z,78.54
2022-12-20T10:39:53.171Z,78.90
2022-12-20T10:42:27.539Z,78.68
2022-12-20T10:44:55.899Z,78.96
2022-12-20T10:47:40.683Z,78.68
2022-12-20T10:50:20.785Z,78.63
2022-12-20T10:53:09.470Z,78.59
2022-12-20T10:55:42.165Z,78.52
2022-12-20T10:58:21.259Z,78.49
2022-12-20T11:00:48.357Z,78.73
2022-12-20T11:03:23.283Z,78.51
2022-12-20T11:06:03.446Z,78.25
2022-12-20T11:08:49.239Z,78.46
2022-12-20T11:11:23.652Z,78.53
2022-12-20T11:13:52.225Z,78.53
2022-12-20T11:16:25.398Z,78.32
2022-12-20T11:19:02.747Z,78.42
2022-12-20T11:21:41.479Z,78.34
2022-12-20T11:24:17.097Z,78.57
2022-12-20T11:26:59.970Z,78.58
2022-12-20T11:29:35.643Z,78.41
2022-12-20T11:32:18.033Z,78.24
2022-12-20T11:35:03.074Z,78.51
2022-12-20T11:37:36.399Z,78.43
2022-12-20T11:40:15.138Z,78.44
2022-12-20T11:43:19.554Z,78.25
2022-12-20T11:46:07.303Z,78.22
2022-12-20T11:48:56.980Z,78.38
2022-12-20T11:51:49.536Z,78.30
2022-12-20T11:54:47.619Z,78.68
2022-12-20T11:57:26.543Z,78.29
2022-12-20T12:00:00.779Z,78.36
2022-12-20T12:02:38.473Z,78.22
2022-12-20T12:05:15.344Z,78.21
2022-12-20T12:07:45.094Z,78.20
2022-12-20T12:10:23.531Z,78.19
2022-12-20T12:13:07.211Z,77.92
2022-12-20T12:15:57.248Z,78.07
2022-12-20T12:18:32.518Z,78.11
2022-12-20T12:21:09.581Z,78.06
2022-12-20T12:23:42.015Z,78.18
2022-12-20T12:26:28.290Z,77.76
2022-12-20T12:28:58.632Z,77.68
2022-12-20T12:31:54.015Z,78.05
2022-12-20T12:34:29.358Z,77.97
2022-12-20T12:37:22.348Z,78.02
2022-12-20T12:40:13.080Z,77.95
2022-12-20T12:42:54.506Z,77.76
2022-12-20T12:45:26.485Z,77.86
2022-12-20T12:47:57.382Z,77.79
2022-12-20T12:50:33.154Z,77.73
2022-12-20T12:53:11.818Z,77.78
2022-12-20T12:55:46.482Z,77.86
2022-12-20T12:58:24.697Z,77.68
2022-12-20T13:01:05.014Z,77.76
2022-12-20T13:03:46.084Z,77.73
2022-12-20T13:06:30.989Z,77.74
2022-12-20T13:09:00.386Z,77.66
2022-12-20T13:11:44.264Z,77.88
2022-12-20T13:14:23.891Z,77.75
2022-12-20T13:17:17.233Z,77.79
2022-12-20T13:19:55.003Z,77.87
2022-12-20T13:22:23.634Z,77.63
2022-12-20T13:24:57.214Z,77.74
2022-12-20T13:27:37.040Z,77.50
2022-12-20T13:30:17.175Z,77.59
2022-12-20T13:32:46.612Z,77.70
2022-12-20T13:35:25.421Z,77.60
2022-12-20T13:38:06.031Z,77.71
2022-12-20T13:41:02.718Z,77.71
2022-12-20T13:43:41.456Z,77.61
2022-12-20T13:46:11.160Z,77.47
2022-12-20T13:48:37.620Z,77.47
2022-12-20T13:51:07.721Z,77.62
2022-12-20T13:53:34.372Z,77.61
2022-12-20T13:56:40.499Z,77.42
2022-12-20T13:59:31.371Z,77.52
2022-12-20T14:02:00.570Z,77.43
2022-12-20T14:04:40.389Z,77.36
2022-12-20T14:07:12.081Z,77.52
2022-12-20T14:09:39.276Z,77.63
2022-12-20T14:12:11.593Z,77.56
2022-12-20T14:14:42.802Z,77.54
2022-12-20T14:17:25.853Z,77.44
2022-12-20T14:20:17.938Z,77.56
2022-12-20T14:23:05.544Z,77.37
2022-12-20T14:25:37.993Z,77.33
2022-12-20T14:28:05.609Z,77.32
2022-12-20T14:30:41.459Z,77.25
2022-12-20T14:33:20.084Z,77.25
2022-12-20T14:35:51.051Z,77.28
2022-12-20T14:38:30.406Z,77.28
2022-12-20T14:40:57.086Z,77.19
2022-12-20T14:43:32.451Z,77.20
2022-12-20T14:46:30.577Z,77.28
2022-12-20T14:49:34.303Z,77.33
2022-12-20T14:52:16.073Z,77.18
2022-12-20T14:55:08.261Z,77.23
2022-12-20T14:57:35.876Z,77.22
2022-12-20T15:00:23.386Z,77.18
2022-12-20T15:02:51.760Z,77.16
2022-12-20T15:05:33.789Z,77.67
2022-12-20T15:08:33.422Z,77.67
2022-12-20T15:11:08.920Z,77.42
2022-12-20T15:13:38.664Z,77.48
2022-12-20T15:16:26.186Z,77.37
2022-12-20T15:18:58.390Z,77.16
2022-12-20T15:21:31.715Z,77.31
2022-12-20T15:24:02.114Z,77.46
2022-12-20T15:26:30.916Z,77.33
2022-12-20T15:28:57.645Z,77.41
2022-12-20T15:31:32.975Z,77.05
2022-12-20T15:34:02.423Z,77.34
2022-12-20T15:36:31.076Z,77.36
2022-12-20T15:39:15.167Z,77.28
2022-12-20T15:41:44.745Z,77.46
2022-12-20T15:44:17.637Z,77.21
2022-12-20T15:46:44.412Z,77.36
2022-12-20T15:49:23.504Z,77.14
2022-12-20T15:51:52.285Z,77.37
2022-12-20T15:54:28.189Z,77.30
2022-12-20T15:56:56.857Z,77.34
2022-12-20T16:02:30.895Z,77.23
2022-12-20T16:04:58.696Z,77.20
2022-12-20T16:07:25.379Z,77.14
2022-12-20T16:09:51.869Z,77.31
2022-12-20T16:12:24.558Z,77.19
2022-12-20T16:14:51.636Z,77.29
2022-12-20T16:17:18.100Z,77.26
2022-12-20T16:19:44.796Z,77.22
2022-12-20T16:22:18.823Z,77.07
2022-12-20T16:24:46.140Z,77.45
2022-12-20T16:27:12.576Z,77.39
2022-12-20T16:29:39.203Z,77.29
2022-12-20T16:32:20.148Z,77.31
2022-12-20T16:34:48.761Z,77.41
2022-12-20T16:37:15.401Z,77.38
2022-12-20T16:39:42.677Z,77.28
2022-12-20T16:42:22.998Z,77.18
2022-12-20T16:44:53.742Z,77.33
2022-12-20T16:47:20.573Z,77.32
2022-12-20T16:49:52.249Z,77.41
2022-12-20T16:52:21.880Z,77.33
2022-12-20T16:54:48.920Z,77.35
2022-12-20T16:57:15.378Z,77.44
2022-12-20T16:59:41.799Z,77.32
2022-12-20T17:02:28.775Z,77.42
2022-12-20T17:04:55.476Z,77.46
2022-12-20T17:07:21.959Z,77.35
2022-12-20T17:09:48.360Z,77.41
2022-12-20T17:12:16.903Z,77.43
2022-12-20T17:14:43.439Z,77.39
2022-12-20T17:17:10.049Z,77.42
2022-12-20T17:19:37.104Z,77.33
2022-12-20T17:24:47.372Z,77.51
2022-12-20T17:27:13.786Z,77.45
2022-12-20T17:29:40.235Z,77.43
2022-12-20T17:32:24.386Z,77.33
2022-12-20T17:34:52.153Z,77.16
2022-12-20T17:37:18.716Z,77.28
2022-12-20T17:39:45.482Z,77.21
2022-12-20T17:42:15.921Z,77.25
2022-12-20T17:44:42.982Z,77.30
2022-12-20T17:47:09.659Z,77.09
2022-12-20T17:49:36.114Z,77.22
2022-12-20T17:52:02.630Z,77.43
2022-12-20T17:54:36.627Z,77.11
2022-12-20T17:57:05.806Z,77.19
2022-12-20T17:59:32.313Z,77.02
2022-12-20T18:01:59.268Z,77.27
2022-12-20T18:04:26.717Z,77.21
2022-12-20T18:06:53.303Z,77.11
2022-12-20T18:09:21.655Z,77.07
2022-12-20T18:11:48.593Z,77.10
2022-12-20T18:14:15.896Z,77.10
2022-12-20T18:16:42.906Z,77.32
2022-12-20T18:19:16.550Z,77.12
2022-12-20T18:21:43.120Z,77.18
2022-12-20T18:24:15.820Z,76.87
2022-12-20T18:26:43.722Z,77.15
2022-12-20T18:29:11.025Z,77.17
2022-12-20T18:31:38.305Z,77.15
2022-12-20T18:34:05.027Z,77.24
2022-12-20T18:36:34.650Z,77.17
2022-12-20T18:39:03.332Z,77.21
2022-12-20T18:41:30.692Z,77.33
2022-12-20T18:43:59.407Z,77.33
2022-12-20T18:46:26.511Z,77.26
2022-12-20T18:48:54.801Z,77.24
2022-12-20T18:51:23.637Z,77.40
2022-12-20T18:53:52.954Z,77.32
2022-12-20T18:56:21.909Z,77.29
2022-12-20T18:58:48.796Z,77.27
2022-12-20T19:01:20.695Z,77.30
2022-12-20T19:03:47.749Z,77.49
2022-12-20T19:06:14.578Z,77.47
2022-12-20T19:08:41.634Z,77.49
2022-12-20T19:11:11.947Z,77.31
2022-12-20T19:13:38.769Z,77.38
2022-12-20T19:16:07.225Z,77.47
2022-12-20T19:18:34.708Z,77.43
2022-12-20T19:21:13.235Z,77.30
2022-12-20T19:23:42.222Z,77.45
2022-12-20T19:26:14.014Z,77.40
2022-12-20T19:28:41.606Z,77.40
2022-12-20T19:31:22.270Z,77.33
2022-12-20T19:33:50.606Z,77.37
2022-12-20T19:36:19.823Z,77.33
2022-12-20T19:38:51.957Z,77.45
2022-12-20T19:41:20.171Z,77.48
2022-12-20T19:43:47.661Z,77.41
2022-12-20T19:46:15.140Z,77.54
2022-12-20T19:48:42.106Z,77.48
2022-12-20T19:51:11.772Z,77.61
2022-12-20T19:53:39.490Z,77.51
2022-12-20T19:56:08.537Z,77.49
2022-12-20T19:58:36.130Z,77.59
2022-12-20T20:01:04.400Z,77.59
2022-12-20T20:03:32.498Z,77.64
2022-12-20T20:05:59.318Z,77.60
2022-12-20T20:08:26.022Z,77.61
2022-12-20T20:10:57.422Z,77.63
2022-12-20T20:13:24.466Z,77.50
2022-12-20T20:15:59.228Z,77.51
2022-12-20T20:18:26.679Z,77.66
2022-12-20T20:20:56.884Z,77.59
2022-12-20T20:23:24.365Z,77.58
2022-12-20T20:25:58.778Z,77.63
2022-12-20T20:28:31.705Z,77.76
2022-12-20T20:30:59.738Z,77.62
2022-12-20T20:33:26.503Z,77.75
2022-12-20T20:35:54.952Z,77.76
2022-12-20T20:38:21.477Z,77.81
2022-12-20T20:40:47.913Z,77.71
2022-12-20T20:43:14.341Z,77.70
2022-12-20T20:45:41.106Z,77.75
2022-12-20T20:48:08.123Z,77.80
2022-12-20T20:50:34.632Z,77.85
2022-12-20T20:53:01.059Z,77.88
2022-12-20T20:55:27.525Z,77.77
2022-12-20T20:57:53.980Z,77.73
2022-12-20T21:00:20.778Z,77.85
2022-12-20T21:02:47.514Z,77.82
2022-12-20T21:06:00.116Z,77.88
2022-12-20T21:08:01.038Z,77.98
2022-12-20T21:10:27.591Z,78.01
2022-12-20T21:12:54.155Z,78.03
2022-12-20T21:15:22.301Z,77.93
2022-12-20T21:17:49.576Z,78.08
2022-12-20T21:20:20.627Z,77.98
2022-12-20T21:22:50.364Z,78.00
2022-12-20T21:25:17.186Z,77.71
2022-12-20T21:27:43.637Z,77.96
2022-12-20T21:30:10.685Z,77.89
2022-12-20T21:32:37.092Z,77.74
2022-12-20T21:35:03.680Z,78.01
2022-12-20T21:37:30.366Z,77.99
2022-12-20T21:39:56.817Z,77.88
2022-12-20T21:42:23.640Z,77.86
2022-12-20T21:44:50.075Z,77.96
2022-12-20T21:47:16.504Z,78.04
2022-12-20T21:49:42.968Z,78.08
2022-12-20T21:52:09.469Z,78.09
2022-12-20T21:54:35.910Z,78.09
2022-12-20T21:57:02.353Z,78.04
2022-12-20T21:59:28.793Z,78.06
2022-12-20T22:01:57.171Z,77.99
2022-12-20T22:04:24.291Z,78.16
2022-12-20T22:06:50.774Z,77.99
2022-12-20T22:09:17.643Z,77.96
2022-12-20T22:11:47.905Z,77.94
2022-12-20T22:14:14.936Z,78.09
2022-12-20T22:16:42.126Z,77.96
2022-12-20T22:19:12.695Z,77.78
2022-12-20T22:21:39.211Z,77.96
2022-12-20T22:24:05.927Z,77.94
2022-12-20T22:26:33.592Z,77.97
2022-12-20T22:29:04.557Z,77.93
2022-12-20T22:31:31.824Z,77.80
2022-12-20T22:33:59.316Z,77.76
2022-12-20T22:36:27.008Z,77.78
2022-12-20T22:38:55.409Z,78.05
2022-12-20T22:41:28.844Z,77.81
2022-12-20T22:43:57.222Z,77.94
2022-12-20T22:46:23.837Z,78.13
2022-12-20T22:48:50.338Z,78.05
2022-12-20T22:51:22.646Z,78.26
2022-12-20T22:53:49.373Z,78.06
2022-12-20T22:56:18.390Z,77.87
2022-12-20T22:58:45.144Z,77.99
2022-12-20T23:01:15.101Z,77.98
2022-12-20T23:03:42.206Z,77.92
2022-12-20T23:06:13.877Z,77.92
2022-12-20T23:08:40.885Z,78.07
2022-12-20T23:11:46.017Z,77.88
2022-12-20T23:14:31.957Z,78.12
2022-12-20T23:16:58.988Z,78.04
2022-12-20T23:19:26.260Z,78.17
2022-12-20T23:22:11.069Z,78.01
2022-12-20T23:24:37.536Z,78.00
2022-12-20T23:27:04.005Z,77.87
2022-12-20T23:29:30.617Z,78.05
2022-12-20T23:31:57.090Z,78.12
2022-12-20T23:34:24.373Z,78.06
2022-12-20T23:36:50.876Z,78.04
2022-12-20T23:39:17.303Z,78.16
2022-12-20T23:41:43.770Z,78.05
2022-12-20T23:44:10.230Z,78.00
2022-12-20T23:46:36.710Z,78.16
2022-12-20T23:49:03.310Z,78.22
2022-12-20T23:51:29.810Z,78.08
2022-12-20T23:53:56.280Z,78.02
2022-12-20T23:56:23.463Z,78.09
2022-12-20T23:58:52.209Z,78.09
